Time;durP1;ratioP1;P1;durP2;ratioP2;P2;SDS_P1;SDS_P2;PMS_P1;PMS_P2;Temp;Humidity;BMP_temperature;BMP_pressure;BME280_temperature;BME280_humidity;BME280_pressure;Samples;Min_cycle;Max_cycle;Signal;HPM_P1;HPM_P2
2021/03/05 00:01:10;;;;;;;393.67;355.85;;;;;;;;;;5055638;28;20118;-74
2021/03/05 00:03:36;;;;;;;356.58;320.55;;;;;;;;;;5053770;28;20035;-74
2021/03/05 00:06:02;;;;;;;364.83;328.48;;;;;;;;;;5060023;28;20388;-74
2021/03/05 00:08:28;;;;;;;404.17;366.38;;;;;;;;;;5062287;28;20045;-74
2021/03/05 00:10:54;;;;;;;327.80;292.98;;;;;;;;;;5057145;28;20024;-74
2021/03/05 00:13:21;;;;;;;389.13;351.80;;;;;;;;;;5054231;28;20039;-74
2021/03/05 00:15:47;;;;;;;391.83;354.38;;;;;;;;;;5059132;28;20527;-73
2021/03/05 00:18:13;;;;;;;380.42;343.05;;;;;;;;;;5065664;28;20441;-74
2021/03/05 00:20:43;;;;;;;347.00;311.33;;;;;;;;;;5057678;28;20027;-73
2021/03/05 00:23:09;;;;;;;392.35;354.92;;;;;;;;;;5057893;28;20036;-74
2021/03/05 00:25:35;;;;;;;356.02;319.95;;;;;;;;;;5061417;28;20033;-73
2021/03/05 00:28:01;;;;;;;332.17;297.25;;;;;;;;;;5057245;28;20055;-74
2021/03/05 00:30:27;;;;;;;398.17;360.55;;;;;;;;;;5062244;28;20107;-73
2021/03/05 00:32:53;;;;;;;383.08;345.88;;;;;;;;;;5055367;28;20032;-74
2021/03/05 00:35:19;;;;;;;325.33;290.48;;;;;;;;;;5062417;28;20469;-73
2021/03/05 00:37:46;;;;;;;311.83;276.73;;;;;;;;;;5055689;28;20021;-73
2021/03/05 00:40:14;;;;;;;355.05;319.20;;;;;;;;;;5064303;28;20389;-74
2021/03/05 00:42:41;;;;;;;368.77;332.40;;;;;;;;;;5055294;28;20461;-74
2021/03/05 00:45:08;;;;;;;319.95;285.23;;;;;;;;;;5065609;28;20041;-74
2021/03/05 00:47:34;;;;;;;422.15;383.42;;;;;;;;;;5066370;28;20040;-73
2021/03/05 00:50:00;;;;;;;377.25;340.20;;;;;;;;;;5062840;28;20024;-74
2021/03/05 00:52:26;;;;;;;360.75;324.20;;;;;;;;;;5054627;28;20454;-74
2021/03/05 00:54:52;;;;;;;375.85;338.88;;;;;;;;;;5062654;28;20114;-74
2021/03/05 00:57:18;;;;;;;370.45;333.80;;;;;;;;;;5065222;28;20036;-73
2021/03/05 00:59:44;;;;;;;401.65;363.75;;;;;;;;;;5053717;28;20377;-73
2021/03/05 01:02:10;;;;;;;352.55;316.88;;;;;;;;;;5054616;28;20037;-74
2021/03/05 01:04:36;;;;;;;368.20;331.80;;;;;;;;;;5066283;28;20023;-73
2021/03/05 01:07:02;;;;;;;360.50;324.40;;;;;;;;;;5054552;28;20095;-74
2021/03/05 01:09:28;;;;;;;364.77;328.38;;;;;;;;;;5054231;28;20068;-74
2021/03/05 01:11:54;;;;;;;399.70;362.02;;;;;;;;;;5059243;28;20461;-74
2021/03/05 01:14:21;;;;;;;386.67;349.33;;;;;;;;;;5061198;28;20052;-73
2021/03/05 01:16:47;;;;;;;340.70;305.35;;;;;;;;;;5067758;28;20048;-74
2021/03/05 01:19:13;;;;;;;357.02;320.95;;;;;;;;;;5057875;28;20060;-74
2021/03/05 01:21:39;;;;;;;416.38;378.25;;;;;;;;;;5058148;28;20021;-73
2021/03/05 01:24:06;;;;;;;347.15;311.65;;;;;;;;;;5063190;28;20033;-73
2021/03/05 01:26:32;;;;;;;371.25;334.38;;;;;;;;;;5067501;28;20049;-73
2021/03/05 01:28:59;;;;;;;354.20;318.25;;;;;;;;;;5054484;28;20032;-73
2021/03/05 01:31:25;;;;;;;360.80;324.60;;;;;;;;;;5058543;28;20431;-73
2021/03/05 01:33:51;;;;;;;318.98;284.48;;;;;;;;;;5065056;28;20443;-74
2021/03/05 01:36:17;;;;;;;397.50;359.60;;;;;;;;;;5054295;28;20096;-72
2021/03/05 01:38:43;;;;;;;344.08;308.33;;;;;;;;;;5054114;28;20061;-72
2021/03/05 01:41:09;;;;;;;336.48;301.02;;;;;;;;;;5053883;28;20028;-73
2021/03/05 01:43:38;;;;;;;345.35;309.95;;;;;;;;;;5066668;28;20473;-73
2021/03/05 01:46:04;;;;;;;369.15;332.65;;;;;;;;;;5053758;28;20036;-73
2021/03/05 01:48:31;;;;;;;370.23;333.52;;;;;;;;;;5055904;28;20488;-73
2021/03/05 01:51:14;;;;;;;395.35;357.98;;;;;;;;;;5055725;28;20108;-73
2021/03/05 01:53:41;;;;;;;340.27;304.80;;;;;;;;;;5055546;28;20033;-73
2021/03/05 01:56:07;;;;;;;347.40;311.73;;;;;;;;;;5057239;28;20078;-73
2021/03/05 01:58:33;;;;;;;336.08;300.80;;;;;;;;;;5065279;28;20548;-73
2021/03/05 02:01:09;;;;;;;365.38;328.95;;;;;;;;;;5052745;28;20473;-73
2021/03/05 02:03:35;;;;;;;409.52;371.38;;;;;;;;;;5063926;28;20150;-73
2021/03/05 02:06:03;;;;;;;365.40;329.30;;;;;;;;;;5058904;28;20493;-73
2021/03/05 02:08:30;;;;;;;381.95;345.17;;;;;;;;;;5066929;28;20095;-73
2021/03/05 02:10:56;;;;;;;361.73;325.45;;;;;;;;;;5053828;28;20025;-73
2021/03/05 02:13:22;;;;;;;345.58;309.85;;;;;;;;;;5053875;28;20057;-73
2021/03/05 02:15:48;;;;;;;362.83;326.48;;;;;;;;;;5053184;28;20040;-73
2021/03/05 02:18:26;;;;;;;325.48;290.85;;;;;;;;;;5061978;28;20060;-73
2021/03/05 02:20:52;;;;;;;375.40;338.65;;;;;;;;;;5053595;28;20405;-73
2021/03/05 02:23:38;;;;;;;373.85;337.13;;;;;;;;;;5058365;28;20032;-73
2021/03/05 02:26:04;;;;;;;361.60;324.95;;;;;;;;;;5054923;28;20057;-73
2021/03/05 02:28:49;;;;;;;348.67;312.83;;;;;;;;;;5053237;28;20401;-73
2021/03/05 02:31:21;;;;;;;386.67;349.65;;;;;;;;;;5052051;28;20033;-72
2021/03/05 02:33:56;;;;;;;349.30;313.55;;;;;;;;;;5053244;28;20041;-72
2021/03/05 02:36:24;;;;;;;326.52;291.77;;;;;;;;;;5053056;28;21109;-73
2021/03/05 02:39:11;;;;;;;370.88;334.38;;;;;;;;;;5053370;28;20473;-73
2021/03/05 02:41:38;;;;;;;382.38;345.52;;;;;;;;;;5052029;28;20029;-73
2021/03/05 02:44:07;;;;;;;347.35;311.63;;;;;;;;;;5057141;28;20025;-73
2021/03/05 02:46:34;;;;;;;349.70;314.00;;;;;;;;;;5053710;28;20029;-73
2021/03/05 02:49:02;;;;;;;371.40;335.00;;;;;;;;;;5062345;28;20039;-73
2021/03/05 02:51:30;;;;;;;341.05;305.65;;;;;;;;;;5054195;28;20393;-73
2021/03/05 02:53:57;;;;;;;334.75;299.52;;;;;;;;;;5053802;28;20071;-73
2021/03/05 02:56:24;;;;;;;354.08;317.90;;;;;;;;;;5062614;28;20109;-73
2021/03/05 02:58:51;;;;;;;353.40;317.42;;;;;;;;;;5052212;28;20071;-73
2021/03/05 03:01:18;;;;;;;392.55;355.02;;;;;;;;;;5053858;28;20037;-72
2021/03/05 03:03:44;;;;;;;343.40;308.05;;;;;;;;;;5053824;28;20380;-72
2021/03/05 03:06:11;;;;;;;369.63;333.05;;;;;;;;;;5057393;28;20409;-73
2021/03/05 03:08:37;;;;;;;364.38;328.35;;;;;;;;;;5053641;28;20017;-73
2021/03/05 03:11:04;;;;;;;325.77;290.90;;;;;;;;;;5056521;28;20456;-73
2021/03/05 03:13:32;;;;;;;369.33;332.98;;;;;;;;;;5053837;28;20086;-73
2021/03/05 03:15:59;;;;;;;387.92;350.90;;;;;;;;;;5052933;28;20040;-73
2021/03/05 03:18:25;;;;;;;347.85;312.27;;;;;;;;;;5053732;28;20021;-73
2021/03/05 03:20:54;;;;;;;353.25;317.67;;;;;;;;;;5059227;28;20525;-73
2021/03/05 03:23:20;;;;;;;400.30;362.42;;;;;;;;;;5062877;28;20118;-73
2021/03/05 03:25:46;;;;;;;341.42;306.05;;;;;;;;;;5060628;28;20393;-73
2021/03/05 03:28:13;;;;;;;368.40;331.95;;;;;;;;;;5063567;28;20025;-73
2021/03/05 03:30:39;;;;;;;331.70;296.63;;;;;;;;;;5067502;28;20035;-73
2021/03/05 03:33:05;;;;;;;396.33;358.92;;;;;;;;;;5065688;28;20108;-73
2021/03/05 03:35:31;;;;;;;353.58;317.98;;;;;;;;;;5069633;28;20074;-73
2021/03/05 03:37:57;;;;;;;356.55;320.95;;;;;;;;;;5065705;28;20161;-73
2021/03/05 03:40:23;;;;;;;364.95;329.15;;;;;;;;;;5069482;28;20033;-73
2021/03/05 03:42:50;;;;;;;371.52;335.08;;;;;;;;;;5055358;28;20092;-73
2021/03/05 03:45:21;;;;;;;356.40;320.65;;;;;;;;;;5061568;28;20485;-72
2021/03/05 03:47:48;;;;;;;376.70;340.15;;;;;;;;;;5051726;28;20041;-73
2021/03/05 03:50:19;;;;;;;346.83;311.35;;;;;;;;;;5057307;28;20025;-73
2021/03/05 03:52:48;;;;;;;347.23;311.95;;;;;;;;;;5058047;28;20082;-72
2021/03/05 03:55:14;;;;;;;372.75;336.05;;;;;;;;;;5057053;28;20078;-73
2021/03/05 03:57:41;;;;;;;379.23;342.45;;;;;;;;;;5061685;28;20041;-73
2021/03/05 04:00:10;;;;;;;313.83;279.70;;;;;;;;;;5056542;28;20620;-73
2021/03/05 04:02:37;;;;;;;357.13;321.58;;;;;;;;;;5056090;28;20051;-73
2021/03/05 04:05:06;;;;;;;356.13;320.27;;;;;;;;;;5058427;28;20100;-73
2021/03/05 04:07:33;;;;;;;332.50;297.65;;;;;;;;;;5055427;28;20335;-73
2021/03/05 04:10:01;;;;;;;356.10;320.33;;;;;;;;;;5059595;28;20029;-73
2021/03/05 04:12:28;;;;;;;362.17;326.13;;;;;;;;;;5065758;28;20778;-73
2021/03/05 04:14:55;;;;;;;338.10;303.10;;;;;;;;;;5058044;28;20029;-73
2021/03/05 04:17:22;;;;;;;333.42;298.77;;;;;;;;;;5055832;28;20037;-73
2021/03/05 04:19:48;;;;;;;349.58;313.95;;;;;;;;;;5062061;28;20041;-73
2021/03/05 04:22:15;;;;;;;363.10;327.27;;;;;;;;;;5070104;28;20111;-73
2021/03/05 04:24:41;;;;;;;358.88;323.00;;;;;;;;;;5059368;28;20513;-72
2021/03/05 04:27:08;;;;;;;364.65;328.40;;;;;;;;;;5055403;28;20037;-73
2021/03/05 04:29:34;;;;;;;382.85;345.98;;;;;;;;;;5057797;28;20056;-73
2021/03/05 04:32:00;;;;;;;367.38;331.20;;;;;;;;;;5054625;28;20047;-72
2021/03/05 04:34:26;;;;;;;360.42;324.35;;;;;;;;;;5066977;28;20396;-73
2021/03/05 04:36:53;;;;;;;376.58;340.13;;;;;;;;;;5055244;28;20025;-73
2021/03/05 04:39:19;;;;;;;394.73;357.67;;;;;;;;;;5066851;28;20427;-73
2021/03/05 04:41:45;;;;;;;373.05;336.58;;;;;;;;;;5064234;28;20024;-73
2021/03/05 04:44:11;;;;;;;338.25;303.23;;;;;;;;;;5068902;28;20436;-73
2021/03/05 04:46:37;;;;;;;384.20;347.67;;;;;;;;;;5055837;28;20036;-73
2021/03/05 04:49:04;;;;;;;332.13;297.55;;;;;;;;;;5062875;28;20040;-73
2021/03/05 04:51:30;;;;;;;344.35;309.25;;;;;;;;;;5056388;28;20029;-73
2021/03/05 04:53:57;;;;;;;371.70;335.58;;;;;;;;;;5064641;28;20036;-73
2021/03/05 04:56:23;;;;;;;397.45;360.38;;;;;;;;;;5055505;28;20048;-73
2021/03/05 04:58:49;;;;;;;337.05;302.20;;;;;;;;;;5056588;28;20071;-73
2021/03/05 05:01:15;;;;;;;344.90;309.33;;;;;;;;;;5055851;28;20029;-72
2021/03/05 05:03:41;;;;;;;359.08;323.45;;;;;;;;;;5063703;28;20025;-72
2021/03/05 05:06:07;;;;;;;390.60;353.35;;;;;;;;;;5056295;28;20025;-72
2021/03/05 05:08:33;;;;;;;333.45;298.70;;;;;;;;;;5067576;28;20480;-72
2021/03/05 05:10:59;;;;;;;325.63;291.30;;;;;;;;;;5054643;28;20230;-73
2021/03/05 05:13:25;;;;;;;349.92;314.58;;;;;;;;;;5054899;28;20560;-73
2021/03/05 05:15:51;;;;;;;352.88;317.33;;;;;;;;;;5055039;28;20133;-73
2021/03/05 05:18:17;;;;;;;345.75;310.70;;;;;;;;;;5054970;28;20523;-73
2021/03/05 05:20:44;;;;;;;370.67;334.38;;;;;;;;;;5055080;28;20033;-73
2021/03/05 05:23:10;;;;;;;348.88;313.63;;;;;;;;;;5066537;28;20524;-73
2021/03/05 05:25:36;;;;;;;372.02;335.98;;;;;;;;;;5054543;28;20108;-73
2021/03/05 05:28:02;;;;;;;343.83;308.85;;;;;;;;;;5053559;28;20048;-73
2021/03/05 05:30:28;;;;;;;396.08;358.85;;;;;;;;;;5062292;28;20376;-73
2021/03/05 05:32:54;;;;;;;381.73;345.13;;;;;;;;;;5053728;28;20037;-73
2021/03/05 05:35:20;;;;;;;373.33;337.25;;;;;;;;;;5055214;28;20435;-72
2021/03/05 05:37:46;;;;;;;356.08;320.70;;;;;;;;;;5054063;28;20120;-72
2021/03/05 05:40:13;;;;;;;331.00;296.30;;;;;;;;;;5054204;28;20033;-72
2021/03/05 05:42:39;;;;;;;337.90;303.27;;;;;;;;;;5054704;28;20378;-73
2021/03/05 05:45:05;;;;;;;333.98;298.98;;;;;;;;;;5054600;28;20035;-72
2021/03/05 05:47:35;;;;;;;364.05;328.35;;;;;;;;;;5064664;28;20036;-72
2021/03/05 05:50:03;;;;;;;390.02;353.20;;;;;;;;;;5055894;28;20088;-72
2021/03/05 05:52:30;;;;;;;373.15;336.88;;;;;;;;;;5053100;28;20497;-72
2021/03/05 05:54:56;;;;;;;333.02;298.25;;;;;;;;;;5055883;28;20087;-73
2021/03/05 05:57:27;;;;;;;363.80;327.92;;;;;;;;;;5053968;28;20488;-72
2021/03/05 05:59:53;;;;;;;395.88;359.00;;;;;;;;;;5061685;28;20048;-72
2021/03/05 06:02:19;;;;;;;344.42;309.33;;;;;;;;;;5054023;28;20040;-72
2021/03/05 06:04:45;;;;;;;361.95;326.45;;;;;;;;;;5052668;28;20376;-72
2021/03/05 06:07:12;;;;;;;361.83;326.27;;;;;;;;;;5053626;28;20128;-72
2021/03/05 06:09:38;;;;;;;380.92;344.77;;;;;;;;;;5056639;28;20072;-72
2021/03/05 06:12:14;;;;;;;383.75;347.25;;;;;;;;;;5054154;28;20031;-72
2021/03/05 06:14:41;;;;;;;379.80;343.35;;;;;;;;;;5056911;28;20056;-72
2021/03/05 06:17:07;;;;;;;360.48;324.83;;;;;;;;;;5056700;28;20024;-73
2021/03/05 06:19:33;;;;;;;313.08;279.45;;;;;;;;;;5058667;28;20037;-73
2021/03/05 06:21:59;;;;;;;377.90;341.70;;;;;;;;;;5053720;28;20036;-73
2021/03/05 06:24:26;;;;;;;364.77;329.27;;;;;;;;;;5052474;28;20374;-73
2021/03/05 06:26:52;;;;;;;357.13;321.60;;;;;;;;;;5063268;28;20060;-73
2021/03/05 06:29:19;;;;;;;383.75;347.35;;;;;;;;;;5058638;28;20106;-73
2021/03/05 06:32:12;;;;;;;380.27;344.05;;;;;;;;;;5052548;28;20017;-73
2021/03/05 06:34:46;;;;;;;329.58;295.23;;;;;;;;;;5056116;28;20044;-72
2021/03/05 06:37:12;;;;;;;334.58;300.13;;;;;;;;;;5060814;28;20431;-72
2021/03/05 06:39:38;;;;;;;356.38;321.08;;;;;;;;;;5057669;28;20029;-72
2021/03/05 06:42:08;;;;;;;325.95;291.90;;;;;;;;;;5054283;28;20024;-72
2021/03/05 06:44:39;;;;;;;357.48;321.88;;;;;;;;;;5053147;28;20373;-72
2021/03/05 06:47:16;;;;;;;360.55;324.90;;;;;;;;;;5058640;28;20060;-72
2021/03/05 06:49:43;;;;;;;346.90;311.95;;;;;;;;;;5064937;28;20062;-73
2021/03/05 06:52:10;;;;;;;328.25;293.92;;;;;;;;;;5065135;28;20036;-73
2021/03/05 06:54:37;;;;;;;336.23;301.67;;;;;;;;;;5055109;28;20521;-73
2021/03/05 06:57:04;;;;;;;309.20;275.65;;;;;;;;;;5050941;28;20291;-73
2021/03/05 06:59:37;;;;;;;378.35;342.23;;;;;;;;;;5058293;28;20024;-73
2021/03/05 07:02:05;;;;;;;338.10;303.52;;;;;;;;;;5056570;28;20123;-71
2021/03/05 07:04:33;;;;;;;346.10;311.33;;;;;;;;;;5064554;28;20062;-73
2021/03/05 07:06:59;;;;;;;;;;;;;;;;;;5061364;28;20032;-73
2021/03/05 07:09:26;;;;;;;314.48;281.17;;;;;;;;;;5056637;28;20008;-73
2021/03/05 07:11:53;;;;;;;;;;;;;;;;;;5056715;28;20035;-73
2021/03/05 07:14:19;;;;;;;360.15;325.02;;;;;;;;;;5057800;28;19913;-73
2021/03/05 07:16:49;;;;;;;342.35;307.55;;;;;;;;;;5053842;28;20024;-74
2021/03/05 07:19:19;;;;;;;339.15;304.52;;;;;;;;;;5053554;28;20036;-74
2021/03/05 07:21:47;;;;;;;312.95;279.23;;;;;;;;;;5051973;28;20036;-74
2021/03/05 07:24:14;;;;;;;375.35;339.33;;;;;;;;;;5055951;28;20152;-73
2021/03/05 07:26:43;;;;;;;361.17;325.92;;;;;;;;;;5053085;28;20078;-73
2021/03/05 07:29:17;;;;;;;345.30;310.58;;;;;;;;;;5058215;28;20366;-72
2021/03/05 07:31:43;;;;;;;350.27;315.10;;;;;;;;;;5055794;28;20021;-73
2021/03/05 07:34:11;;;;;;;377.48;341.55;;;;;;;;;;5060097;28;20473;-73
2021/03/05 07:36:40;;;;;;;333.45;299.15;;;;;;;;;;5055469;28;20029;-72
2021/03/05 07:39:07;;;;;;;367.60;331.65;;;;;;;;;;5054972;28;20036;-73
2021/03/05 07:41:33;;;;;;;368.85;332.77;;;;;;;;;;5052080;28;20070;-72
2021/03/05 07:43:59;;;;;;;388.02;351.30;;;;;;;;;;5054459;28;20033;-73
2021/03/05 07:46:25;;;;;;;311.13;277.38;;;;;;;;;;5057312;28;20123;-73
2021/03/05 07:48:51;;;;;;;331.58;297.20;;;;;;;;;;5051830;28;20052;-73
2021/03/05 07:51:18;;;;;;;380.25;343.75;;;;;;;;;;5055708;28;20024;-73
2021/03/05 07:53:45;;;;;;;;;;;;;;;;;;5054418;28;20047;-73
2021/03/05 07:56:31;;;;;;;386.17;349.55;;;;;;;;;;5055525;28;19912;-74
2021/03/05 07:58:57;;;;;;;374.92;338.83;;;;;;;;;;5054202;28;20036;-73
2021/03/05 08:01:46;;;;;;;380.75;344.13;;;;;;;;;;5061946;28;20124;-72
2021/03/05 08:04:12;;;;;;;387.83;351.20;;;;;;;;;;5062430;28;20045;-73
2021/03/05 08:06:39;;;;;;;377.38;340.95;;;;;;;;;;5055803;28;20638;-74
2021/03/05 08:09:05;;;;;;;;;;;;;;;;;;5058315;28;20037;-74
2021/03/05 08:11:35;;;;;;;372.00;336.17;;;;;;;;;;5051211;28;19970;-73
2021/03/05 08:14:22;;;;;;;355.13;319.98;;;;;;;;;;5051834;28;20500;-74
2021/03/05 08:16:48;;;;;;;391.58;355.17;;;;;;;;;;5061265;28;20404;-73
2021/03/05 08:19:16;;;;;;;349.55;314.42;;;;;;;;;;5053147;28;20366;-73
2021/03/05 08:21:55;;;;;;;380.73;344.33;;;;;;;;;;5055805;28;20046;-73
2021/03/05 08:24:21;;;;;;;373.65;337.70;;;;;;;;;;5056239;28;20378;-73
2021/03/05 08:27:07;;;;;;;338.73;304.10;;;;;;;;;;5054581;28;20048;-74
2021/03/05 08:29:50;;;;;;;356.60;321.47;;;;;;;;;;5064595;28;20447;-73
2021/03/05 08:32:34;;;;;;;389.25;352.58;;;;;;;;;;5056025;28;20291;-73
2021/03/05 08:35:10;;;;;;;331.90;297.50;;;;;;;;;;5055948;28;20095;-73
2021/03/05 08:37:38;;;;;;;360.75;325.08;;;;;;;;;;5056796;28;20052;-73
2021/03/05 08:40:13;;;;;;;371.92;335.75;;;;;;;;;;5059589;28;20053;-74
2021/03/05 08:42:41;;;;;;;393.75;356.65;;;;;;;;;;5054627;28;20029;-74
2021/03/05 08:45:17;;;;;;;332.23;297.77;;;;;;;;;;5064219;28;20112;-73
2021/03/05 08:47:45;;;;;;;362.73;326.90;;;;;;;;;;5065099;28;20091;-73
2021/03/05 08:50:12;;;;;;;340.25;305.55;;;;;;;;;;5056157;28;20063;-73
2021/03/05 08:52:42;;;;;;;377.38;341.35;;;;;;;;;;5060810;28;20037;-73
2021/03/05 08:55:09;;;;;;;368.88;333.10;;;;;;;;;;5070270;28;20447;-74
2021/03/05 08:57:42;;;;;;;376.20;340.15;;;;;;;;;;5062793;28;20033;-73
2021/03/05 09:00:15;;;;;;;406.55;369.15;;;;;;;;;;5071545;28;20029;-73
2021/03/05 09:02:42;;;;;;;343.52;308.77;;;;;;;;;;5061761;28;20098;-74
2021/03/05 09:05:08;;;;;;;370.63;334.52;;;;;;;;;;5055109;28;20423;-73
2021/03/05 09:07:45;;;;;;;380.67;344.45;;;;;;;;;;5063444;28;20388;-73
2021/03/05 09:10:11;;;;;;;395.10;358.10;;;;;;;;;;5062085;28;20439;-73
2021/03/05 09:12:39;;;;;;;350.50;315.23;;;;;;;;;;5054468;28;20116;-73
2021/03/05 09:15:06;;;;;;;369.50;333.58;;;;;;;;;;5058287;28;20421;-73
2021/03/05 09:17:32;;;;;;;406.27;368.67;;;;;;;;;;5067818;28;20480;-73
2021/03/05 09:19:58;;;;;;;352.15;316.92;;;;;;;;;;5065974;28;20055;-73
2021/03/05 09:22:25;;;;;;;354.25;318.92;;;;;;;;;;5063085;28;20029;-73
2021/03/05 09:24:56;;;;;;;355.88;320.38;;;;;;;;;;5061358;28;20029;-72
2021/03/05 09:27:31;;;;;;;350.40;315.20;;;;;;;;;;5060168;28;20033;-73
2021/03/05 09:29:58;;;;;;;365.50;329.65;;;;;;;;;;5052691;28;20039;-74
2021/03/05 09:32:25;;;;;;;415.48;377.70;;;;;;;;;;5057921;28;20041;-75
2021/03/05 09:35:00;;;;;;;355.17;319.92;;;;;;;;;;5057557;28;20551;-74
2021/03/05 09:37:30;;;;;;;1948.75;999.90;;;;;;;;;;5051354;28;20504;-74
2021/03/05 09:39:58;;;;;;;1921.90;999.90;;;;;;;;;;5056630;28;20478;-75
2021/03/05 09:42:43;;;;;;;407.88;369.90;;;;;;;;;;5057446;28;20043;-74
2021/03/05 09:45:10;;;;;;;341.50;306.65;;;;;;;;;;5060575;28;20100;-74
2021/03/05 09:47:53;;;;;;;350.70;315.67;;;;;;;;;;5056879;28;20106;-74
2021/03/05 09:50:23;;;;;;;369.77;333.98;;;;;;;;;;5036764;28;20512;-74
2021/03/05 09:52:49;;;;;;;379.48;343.08;;;;;;;;;;5038095;28;20037;-74
2021/03/05 09:55:27;;;;;;;380.20;343.83;;;;;;;;;;5043192;28;20033;-73
2021/03/05 09:57:54;;;;;;;359.40;323.75;;;;;;;;;;5042711;28;20029;-73
2021/03/05 10:00:27;;;;;;;376.98;340.88;;;;;;;;;;5040831;28;20057;-73
2021/03/05 10:03:01;;;;;;;366.52;330.63;;;;;;;;;;5041948;28;20027;-73
2021/03/05 10:05:27;;;;;;;353.73;318.42;;;;;;;;;;5043210;28;20029;-73
2021/03/05 10:07:53;;;;;;;376.13;339.88;;;;;;;;;;5041618;28;20043;-74
2021/03/05 10:10:20;;;;;;;412.15;374.58;;;;;;;;;;5038174;28;20029;-71
2021/03/05 10:12:53;;;;;;;406.20;368.77;;;;;;;;;;5031058;28;20030;-73
2021/03/05 10:15:19;;;;;;;372.30;336.25;;;;;;;;;;5039351;28;20033;-72
2021/03/05 10:17:45;;;;;;;339.95;305.15;;;;;;;;;;5037188;28;20029;-73
2021/03/05 10:20:11;;;;;;;383.42;346.65;;;;;;;;;;5040460;28;20388;-71
2021/03/05 10:22:37;;;;;;;377.65;341.38;;;;;;;;;;5041706;28;20029;-72
2021/03/05 10:25:04;;;;;;;400.15;363.15;;;;;;;;;;5036627;28;20036;-72
2021/03/05 10:27:40;;;;;;;325.07;290.90;;;;;;;;;;5041226;28;20037;-73
2021/03/05 10:30:07;;;;;;;335.70;300.92;;;;;;;;;;5046467;28;20051;-73
2021/03/05 10:32:36;;;;;;;361.90;326.20;;;;;;;;;;5032252;28;20017;-73
2021/03/05 10:35:12;;;;;;;370.13;334.02;;;;;;;;;;5033221;28;20033;-73
2021/03/05 10:37:41;;;;;;;403.90;366.48;;;;;;;;;;5038785;28;20496;-73
2021/03/05 10:40:14;;;;;;;381.92;345.38;;;;;;;;;;5039740;28;20438;-73
2021/03/05 10:42:40;;;;;;;370.38;334.42;;;;;;;;;;5048132;28;20029;-73
2021/03/05 10:45:06;;;;;;;386.33;349.80;;;;;;;;;;5035612;28;20040;-73
2021/03/05 10:47:33;;;;;;;421.17;383.02;;;;;;;;;;5038861;28;20044;-72
2021/03/05 10:49:59;;;;;;;;;;;;;;;;;;5038084;28;20026;-73
2021/03/05 10:52:27;;;;;;;425.58;387.60;;;;;;;;;;5034245;28;19913;-73
2021/03/05 10:54:53;;;;;;;360.90;324.73;;;;;;;;;;5036584;28;20111;-72
2021/03/05 10:57:19;;;;;;;378.95;342.45;;;;;;;;;;5033122;28;20060;-72
2021/03/05 10:59:49;;;;;;;366.77;330.95;;;;;;;;;;5041154;28;20029;-72
2021/03/05 11:02:15;;;;;;;1368.70;999.90;;;;;;;;;;5042633;28;20192;-72
2021/03/05 11:04:41;;;;;;;395.45;358.27;;;;;;;;;;5037182;28;20044;-72
2021/03/05 11:07:07;;;;;;;350.25;314.85;;;;;;;;;;5042607;28;20452;-72
2021/03/05 11:09:33;;;;;;;371.73;335.25;;;;;;;;;;5035855;28;20026;-72
2021/03/05 11:12:00;;;;;;;338.33;303.60;;;;;;;;;;5038801;28;20033;-71
2021/03/05 11:14:27;;;;;;;377.55;341.23;;;;;;;;;;5037082;28;20032;-72
2021/03/05 11:16:53;;;;;;;376.33;340.17;;;;;;;;;;5041430;28;20038;-72
2021/03/05 11:19:20;;;;;;;370.38;334.40;;;;;;;;;;5037468;28;20033;-72
2021/03/05 11:21:46;;;;;;;384.17;347.58;;;;;;;;;;5036517;28;20032;-72
2021/03/05 11:24:12;;;;;;;382.77;346.15;;;;;;;;;;5039535;28;20044;-72
2021/03/05 11:26:39;;;;;;;331.45;296.90;;;;;;;;;;5036607;28;20091;-72
2021/03/05 11:29:05;;;;;;;394.63;357.83;;;;;;;;;;5043987;28;20025;-71
2021/03/05 11:31:32;;;;;;;359.05;323.25;;;;;;;;;;5038578;28;20108;-71
2021/03/05 11:33:58;;;;;;;351.70;316.30;;;;;;;;;;5032957;28;20022;-71
2021/03/05 11:36:24;;;;;;;394.83;357.45;;;;;;;;;;5032439;28;20513;-71
2021/03/05 11:38:51;;;;;;;386.23;349.50;;;;;;;;;;5033970;28;20377;-70
2021/03/05 11:41:18;;;;;;;325.20;290.33;;;;;;;;;;5041861;28;20021;-70
2021/03/05 11:43:46;;;;;;;376.38;339.88;;;;;;;;;;5039010;28;20638;-71
2021/03/05 11:46:13;;;;;;;364.45;328.38;;;;;;;;;;5035271;28;20585;-72
2021/03/05 11:48:39;;;;;;;344.83;310.07;;;;;;;;;;5034733;28;20440;-70
2021/03/05 11:51:06;;;;;;;318.42;284.30;;;;;;;;;;5036994;28;20036;-72
2021/03/05 11:53:32;;;;;;;354.05;318.52;;;;;;;;;;5033762;28;20044;-70
2021/03/05 11:55:58;;;;;;;369.45;333.15;;;;;;;;;;5036397;28;20417;-71
2021/03/05 11:58:24;;;;;;;361.10;325.55;;;;;;;;;;5032516;28;20041;-71
2021/03/05 12:00:50;;;;;;;397.77;360.73;;;;;;;;;;5040227;28;20060;-71
2021/03/05 12:03:16;;;;;;;374.73;338.65;;;;;;;;;;5044282;28;20099;-70
2021/03/05 12:05:42;;;;;;;392.55;355.33;;;;;;;;;;5041313;28;20548;-70
2021/03/05 12:08:08;;;;;;;380.60;343.80;;;;;;;;;;5041403;28;20167;-71
2021/03/05 12:10:34;;;;;;;381.45;344.83;;;;;;;;;;5045172;28;20029;-72
2021/03/05 12:13:00;;;;;;;356.75;321.05;;;;;;;;;;5037921;28;20025;-72
2021/03/05 12:15:27;;;;;;;354.83;319.20;;;;;;;;;;5042974;28;20377;-71
2021/03/05 12:17:53;;;;;;;339.08;304.20;;;;;;;;;;5045993;28;20408;-71
2021/03/05 12:20:19;;;;;;;352.98;317.52;;;;;;;;;;5046879;28;20036;-70
2021/03/05 12:22:45;;;;;;;335.38;300.58;;;;;;;;;;5047289;28;20061;-69
2021/03/05 12:25:11;;;;;;;376.27;339.25;;;;;;;;;;5041268;28;20030;-69
2021/03/05 12:27:37;;;;;;;377.50;340.83;;;;;;;;;;5043395;28;20127;-68
2021/03/05 12:30:05;;;;;;;385.67;348.55;;;;;;;;;;5048382;28;20026;-70
2021/03/05 12:32:31;;;;;;;369.10;332.92;;;;;;;;;;5051620;28;20033;-68
2021/03/05 12:34:57;;;;;;;369.85;333.58;;;;;;;;;;5048630;28;20109;-70
2021/03/05 12:37:23;;;;;;;395.50;358.23;;;;;;;;;;5051513;28;20056;-68
2021/03/05 12:39:49;;;;;;;355.00;319.55;;;;;;;;;;5048359;28;20473;-71
2021/03/05 12:42:15;;;;;;;327.75;293.20;;;;;;;;;;5042624;28;20057;-69
2021/03/05 12:44:41;;;;;;;307.75;274.25;;;;;;;;;;5038801;28;20106;-69
2021/03/05 12:47:08;;;;;;;353.88;318.42;;;;;;;;;;5037228;28;20046;-69
2021/03/05 12:49:34;;;;;;;360.25;324.38;;;;;;;;;;5041719;28;20025;-68
2021/03/05 12:52:00;;;;;;;419.77;381.40;;;;;;;;;;5045002;28;20362;-68
2021/03/05 12:54:26;;;;;;;348.90;313.38;;;;;;;;;;5036885;28;20044;-69
2021/03/05 12:56:52;;;;;;;301.98;263.92;;;;;;;;;;5036087;28;20025;-69
2021/03/05 12:59:18;;;;;;;339.30;304.02;;;;;;;;;;5040074;28;20026;-69
2021/03/05 13:01:44;;;;;;;331.23;296.55;;;;;;;;;;5043363;28;20469;-69
2021/03/05 13:04:10;;;;;;;341.33;306.38;;;;;;;;;;5041757;28;20037;-70
2021/03/05 13:06:36;;;;;;;349.67;314.30;;;;;;;;;;5039287;28;20022;-69
2021/03/05 13:09:02;;;;;;;352.35;316.70;;;;;;;;;;5043405;28;20124;-69
2021/03/05 13:11:28;;;;;;;311.05;276.50;;;;;;;;;;5041246;28;20370;-69
2021/03/05 13:13:54;;;;;;;343.05;307.80;;;;;;;;;;5045747;28;20103;-68
2021/03/05 13:16:20;;;;;;;347.98;312.77;;;;;;;;;;5039956;28;20047;-71
2021/03/05 13:18:47;;;;;;;324.77;290.67;;;;;;;;;;5045910;28;20651;-69
2021/03/05 13:21:13;;;;;;;302.30;267.47;;;;;;;;;;5045583;28;20354;-70
2021/03/05 13:23:39;;;;;;;351.13;315.63;;;;;;;;;;5048393;28;20393;-68
2021/03/05 13:26:11;;;;;;;358.88;322.95;;;;;;;;;;5044913;28;20449;-68
2021/03/05 13:28:37;;;;;;;321.58;287.83;;;;;;;;;;5049956;28;20025;-72
2021/03/05 13:31:04;;;;;;;340.73;305.90;;;;;;;;;;5035772;28;20037;-70
2021/03/05 13:33:30;;;;;;;352.17;316.15;;;;;;;;;;5041327;28;20029;-68
2021/03/05 13:35:56;;;;;;;340.48;305.50;;;;;;;;;;5042851;28;20120;-83
2021/03/05 13:38:22;;;;;;;302.90;267.02;;;;;;;;;;5046480;28;20377;-71
2021/03/05 13:40:48;;;;;;;323.02;288.98;;;;;;;;;;5048670;28;20021;-73
2021/03/05 13:43:14;;;;;;;294.13;239.82;;;;;;;;;;5044476;28;20025;-70
2021/03/05 13:45:40;;;;;;;318.48;284.23;;;;;;;;;;5037952;28;20041;-70
2021/03/05 13:48:06;;;;;;;313.52;280.00;;;;;;;;;;5038057;28;20045;-72
2021/03/05 13:50:32;;;;;;;312.90;279.03;;;;;;;;;;5042062;28;20032;-72
2021/03/05 13:52:58;;;;;;;287.25;223.68;;;;;;;;;;5035616;28;20037;-73
2021/03/05 13:55:25;;;;;;;327.88;293.73;;;;;;;;;;5035277;28;20052;-72
2021/03/05 13:57:51;;;;;;;289.65;242.77;;;;;;;;;;5040255;28;20037;-70